DHL4TR LOWW-EKCH
Flight info
| Callsign | DHL4TR |
|---|---|
| Flight time | N/A |
| Altitude | 38000 |
| Route | LANUX6B/16 LANUX DCT TABEM DCT ERASU DCT RENDO DCT UNRIG DCT NAKIP DCT TEPDU DCT MATEK DCT LILBI DCT BUDIQ |
| Aircraft | A332/H-SDE3GHIJ2J3J5M1RVWXY/LB2D1 |
Departure
| Time | 2026-05-04 19:17 |
|---|---|
| Airport | Vienna International Airport (LOWW) |
Arrival
| Time | N/A |
|---|---|
| Airport | Copenhagen Kastrup Airport (EKCH) |
| Time | Latitude | Longitude | Altitude | Speed | Heading |
|---|---|---|---|---|---|
| 2026-05-04 18:36 | 48.12329 | 16.54081 | 600 ft | 0 kts | 295° |
| 2026-05-04 19:04 | 48.12326 | 16.54091 | 600 ft | 2 kts | 295° |
| 2026-05-04 19:05 | 48.12319 | 16.54113 | 600 ft | 2 kts | 295° |
| 2026-05-04 19:05 | 48.12312 | 16.54136 | 600 ft | 2 kts | 295° |
| 2026-05-04 19:05 | 48.12305 | 16.54158 | 600 ft | 2 kts | 295° |
| 2026-05-04 19:05 | 48.12297 | 16.54180 | 600 ft | 2 kts | 295° |
| 2026-05-04 19:06 | 48.12290 | 16.54202 | 600 ft | 2 kts | 295° |
| 2026-05-04 19:06 | 48.12283 | 16.54224 | 600 ft | 2 kts | 296° |
| 2026-05-04 19:06 | 48.12279 | 16.54236 | 600 ft | 0 kts | 295° |
| 2026-05-04 19:06 | 48.12283 | 16.54223 | 600 ft | 3 kts | 295° |
| 2026-05-04 19:07 | 48.12285 | 16.54219 | 600 ft | 0 kts | 295° |
| 2026-05-04 19:11 | 48.12284 | 16.54211 | 600 ft | 0 kts | 268° |
| 2026-05-04 19:11 | 48.12282 | 16.54207 | 600 ft | 1 kts | 249° |
| 2026-05-04 19:11 | 48.12275 | 16.54198 | 600 ft | 1 kts | 226° |
| 2026-05-04 19:12 | 48.12268 | 16.54190 | 601 ft | 3 kts | 220° |
| 2026-05-04 19:12 | 48.12260 | 16.54047 | 601 ft | 13 kts | 297° |
| 2026-05-04 19:12 | 48.12313 | 16.53894 | 601 ft | 20 kts | 297° |
| 2026-05-04 19:13 | 48.12367 | 16.53721 | 600 ft | 13 kts | 296° |
| 2026-05-04 19:13 | 48.12380 | 16.53625 | 602 ft | 6 kts | 258° |
| 2026-05-04 19:13 | 48.12361 | 16.53591 | 603 ft | 3 kts | 215° |
| 2026-05-04 19:13 | 48.12358 | 16.53588 | 603 ft | 0 kts | 214° |
| 2026-05-04 19:14 | 48.12357 | 16.53586 | 603 ft | 2 kts | 215° |
| 2026-05-04 19:14 | 48.12329 | 16.53560 | 619 ft | 7 kts | 212° |
| 2026-05-04 19:14 | 48.12275 | 16.53515 | 619 ft | 11 kts | 201° |
| 2026-05-04 19:14 | 48.12209 | 16.53561 | 619 ft | 4 kts | 118° |
| 2026-05-04 19:15 | 48.12209 | 16.53563 | 619 ft | 0 kts | 118° |
| 2026-05-04 19:16 | 48.12198 | 16.53593 | 617 ft | 19 kts | 117° |
| 2026-05-04 19:16 | 48.12039 | 16.54084 | 618 ft | 84 kts | 116° |
| 2026-05-04 19:16 | 48.11703 | 16.55115 | 619 ft | 135 kts | 115° |
| 2026-05-04 19:17 | 48.11265 | 16.56447 | 1075 ft | 143 kts | 118° |
| 2026-05-04 19:17 | 48.10791 | 16.57891 | 1394 ft | 170 kts | 122° |
| 2026-05-04 19:17 | 48.10195 | 16.59624 | 1649 ft | 199 kts | 123° |
| 2026-05-04 19:17 | 48.09713 | 16.61700 | 2089 ft | 228 kts | 100° |
| 2026-05-04 19:18 | 48.10071 | 16.64014 | 3047 ft | 230 kts | 72° |
| 2026-05-04 19:18 | 48.10836 | 16.66147 | 3726 ft | 240 kts | 64° |
| 2026-05-04 19:18 | 48.11730 | 16.68408 | 4029 ft | 263 kts | 63° |
| 2026-05-04 19:18 | 48.12683 | 16.70812 | 4557 ft | 274 kts | 62° |
| 2026-05-04 19:19 | 48.13655 | 16.73295 | 5265 ft | 276 kts | 62° |
| 2026-05-04 19:19 | 48.14612 | 16.75762 | 6130 ft | 273 kts | 60° |
| 2026-05-04 19:19 | 48.15755 | 16.78021 | 6894 ft | 274 kts | 44° |
| 2026-05-04 19:19 | 48.17363 | 16.79548 | 7064 ft | 281 kts | 19° |
| 2026-05-04 19:20 | 48.19283 | 16.79854 | 7019 ft | 278 kts | 350° |
| 2026-05-04 19:20 | 48.21167 | 16.79210 | 6999 ft | 277 kts | 343° |
| 2026-05-04 19:20 | 48.23027 | 16.78435 | 6997 ft | 278 kts | 343° |
| 2026-05-04 19:20 | 48.24919 | 16.77675 | 6974 ft | 287 kts | 343° |
| 2026-05-04 19:21 | 48.26871 | 16.76933 | 6987 ft | 290 kts | 344° |
| 2026-05-04 19:21 | 48.28840 | 16.76214 | 7278 ft | 292 kts | 345° |
| 2026-05-04 19:21 | 48.30826 | 16.75502 | 8061 ft | 295 kts | 345° |
| 2026-05-04 19:21 | 48.32825 | 16.74790 | 9105 ft | 296 kts | 344° |
| 2026-05-04 19:22 | 48.34779 | 16.73815 | 10064 ft | 297 kts | 334° |
| 2026-05-04 19:22 | 48.36694 | 16.72440 | 10592 ft | 315 kts | 331° |
| 2026-05-04 19:22 | 48.38714 | 16.70859 | 10919 ft | 339 kts | 330° |
| 2026-05-04 19:22 | 48.40820 | 16.69100 | 11431 ft | 351 kts | 324° |
| 2026-05-04 19:23 | 48.42685 | 16.66717 | 12181 ft | 353 kts | 309° |
| 2026-05-04 19:23 | 48.44219 | 16.63807 | 12997 ft | 355 kts | 303° |
| 2026-05-04 19:23 | 48.45629 | 16.60786 | 13784 ft | 359 kts | 301° |
| 2026-05-04 19:23 | 48.47041 | 16.57652 | 14465 ft | 363 kts | 301° |
| 2026-05-04 19:24 | 48.48455 | 16.54476 | 15180 ft | 367 kts | 301° |
| 2026-05-04 19:24 | 48.49878 | 16.51265 | 15875 ft | 370 kts | 301° |
| 2026-05-04 19:24 | 48.51312 | 16.48019 | 16589 ft | 372 kts | 301° |
| 2026-05-04 19:24 | 48.52751 | 16.44755 | 17256 ft | 376 kts | 301° |
| 2026-05-04 19:25 | 48.54202 | 16.41459 | 17913 ft | 379 kts | 301° |
| 2026-05-04 19:25 | 48.55665 | 16.38131 | 18557 ft | 382 kts | 301° |
| 2026-05-04 19:25 | 48.57140 | 16.34773 | 19133 ft | 385 kts | 301° |
| 2026-05-04 19:25 | 48.58623 | 16.31393 | 19724 ft | 388 kts | 301° |
| 2026-05-04 19:26 | 48.60120 | 16.27974 | 20298 ft | 390 kts | 301° |
| 2026-05-04 19:26 | 48.61621 | 16.24543 | 20876 ft | 392 kts | 302° |
| 2026-05-04 19:26 | 48.63107 | 16.21139 | 21394 ft | 396 kts | 302° |
| 2026-05-04 19:26 | 48.64631 | 16.17646 | 21937 ft | 399 kts | 302° |
| 2026-05-04 19:27 | 48.66163 | 16.14131 | 22475 ft | 402 kts | 302° |
| 2026-05-04 19:27 | 48.67704 | 16.10589 | 23004 ft | 405 kts | 302° |
| 2026-05-04 19:27 | 48.69255 | 16.07021 | 23524 ft | 407 kts | 302° |
| 2026-05-04 19:27 | 48.70816 | 16.03424 | 23827 ft | 410 kts | 302° |
| 2026-05-04 19:28 | 48.72382 | 15.99811 | 23914 ft | 410 kts | 302° |
| 2026-05-04 19:28 | 48.73954 | 15.96180 | 23920 ft | 411 kts | 302° |
| 2026-05-04 19:28 | 48.75520 | 15.92556 | 23919 ft | 411 kts | 302° |
| 2026-05-04 19:28 | 48.77086 | 15.88929 | 23926 ft | 411 kts | 302° |
| 2026-05-04 19:29 | 48.78649 | 15.85302 | 24196 ft | 412 kts | 302° |
| 2026-05-04 19:29 | 48.80220 | 15.81652 | 24677 ft | 413 kts | 302° |
| 2026-05-04 19:29 | 48.81794 | 15.77989 | 25120 ft | 414 kts | 302° |
| 2026-05-04 19:29 | 48.83373 | 15.74311 | 25553 ft | 416 kts | 302° |
| 2026-05-04 19:30 | 48.84937 | 15.70663 | 25966 ft | 418 kts | 302° |
| 2026-05-04 19:30 | 48.86532 | 15.66939 | 26394 ft | 420 kts | 302° |
| 2026-05-04 19:30 | 48.88237 | 15.63311 | 26785 ft | 424 kts | 308° |
| 2026-05-04 19:30 | 48.90301 | 15.60093 | 27187 ft | 428 kts | 317° |
| 2026-05-04 19:31 | 48.92623 | 15.57241 | 27602 ft | 430 kts | 321° |
| 2026-05-04 19:31 | 48.95027 | 15.54513 | 28019 ft | 432 kts | 322° |
| 2026-05-04 19:31 | 48.97486 | 15.51829 | 28332 ft | 436 kts | 322° |
| 2026-05-04 19:31 | 48.99974 | 15.49145 | 28681 ft | 439 kts | 322° |
| 2026-05-04 19:32 | 49.02471 | 15.46444 | 29044 ft | 441 kts | 322° |
| 2026-05-04 19:32 | 49.04975 | 15.43714 | 29422 ft | 443 kts | 322° |
| 2026-05-04 19:32 | 49.07485 | 15.40956 | 29789 ft | 445 kts | 322° |
| 2026-05-04 19:32 | 49.09968 | 15.38209 | 29917 ft | 447 kts | 322° |
| 2026-05-04 19:33 | 49.12515 | 15.35378 | 29931 ft | 447 kts | 322° |
| 2026-05-04 19:33 | 49.17506 | 15.29811 | 29939 ft | 447 kts | 322° |
| 2026-05-04 19:34 | 49.22531 | 15.24217 | 29934 ft | 446 kts | 323° |
| 2026-05-04 19:34 | 49.28001 | 15.19591 | 30092 ft | 453 kts | 331° |
| 2026-05-04 19:34 | 49.30856 | 15.17486 | 30403 ft | 455 kts | 332° |
| 2026-05-04 19:35 | 49.33729 | 15.15426 | 30710 ft | 457 kts | 332° |
| 2026-05-04 19:35 | 49.36617 | 15.13382 | 31027 ft | 459 kts | 332° |
| 2026-05-04 19:35 | 49.39529 | 15.11326 | 31311 ft | 460 kts | 332° |
| 2026-05-04 19:35 | 49.42442 | 15.09266 | 31602 ft | 462 kts | 332° |
| 2026-05-04 19:36 | 49.45368 | 15.07189 | 31938 ft | 463 kts | 332° |
| 2026-05-04 19:36 | 49.48282 | 15.05113 | 32371 ft | 461 kts | 332° |
| 2026-05-04 19:36 | 49.51184 | 15.03039 | 32816 ft | 459 kts | 332° |
| 2026-05-04 19:36 | 49.54075 | 15.00968 | 33232 ft | 457 kts | 332° |
| 2026-05-04 19:37 | 49.56917 | 14.98927 | 33626 ft | 455 kts | 332° |
| 2026-05-04 19:37 | 49.59785 | 14.96865 | 34004 ft | 455 kts | 331° |
| 2026-05-04 19:37 | 49.62658 | 14.94794 | 34248 ft | 456 kts | 331° |
| 2026-05-04 19:37 | 49.65533 | 14.92721 | 34542 ft | 456 kts | 332° |
| 2026-05-04 19:38 | 49.68398 | 14.90651 | 34876 ft | 454 kts | 332° |
| 2026-05-04 19:38 | 49.71260 | 14.88583 | 35226 ft | 453 kts | 332° |
| 2026-05-04 19:38 | 49.74106 | 14.86524 | 35557 ft | 451 kts | 332° |
| 2026-05-04 19:38 | 49.76950 | 14.84463 | 35828 ft | 451 kts | 332° |
| 2026-05-04 19:39 | 49.79797 | 14.82396 | 35932 ft | 452 kts | 332° |
| 2026-05-04 19:39 | 49.85478 | 14.78265 | 35938 ft | 450 kts | 331° |
| 2026-05-04 19:40 | 49.91107 | 14.74161 | 35938 ft | 449 kts | 331° |
| 2026-05-04 19:40 | 49.96770 | 14.70021 | 35955 ft | 449 kts | 331° |
| 2026-05-04 19:41 | 50.02441 | 14.65865 | 35937 ft | 450 kts | 331° |
| 2026-05-04 19:41 | 50.08121 | 14.61691 | 35937 ft | 451 kts | 331° |
| 2026-05-04 19:42 | 50.13756 | 14.57540 | 35941 ft | 451 kts | 331° |
| 2026-05-04 19:42 | 50.19432 | 14.53349 | 35941 ft | 451 kts | 331° |
| 2026-05-04 19:43 | 50.25100 | 14.49153 | 35934 ft | 451 kts | 331° |
| 2026-05-04 19:43 | 50.30948 | 14.45491 | 35937 ft | 453 kts | 335° |
| 2026-05-04 19:44 | 50.36861 | 14.42046 | 35932 ft | 454 kts | 336° |
| 2026-05-04 19:44 | 50.42813 | 14.38623 | 35931 ft | 456 kts | 336° |
| 2026-05-04 19:45 | 50.48773 | 14.35184 | 35945 ft | 455 kts | 336° |
| 2026-05-04 19:45 | 50.54682 | 14.31756 | 35943 ft | 455 kts | 336° |
| 2026-05-04 19:46 | 50.60614 | 14.28300 | 35971 ft | 455 kts | 336° |
| 2026-05-04 19:46 | 50.66548 | 14.24833 | 35956 ft | 455 kts | 336° |
| 2026-05-04 19:47 | 50.72483 | 14.21356 | 35961 ft | 455 kts | 336° |
| 2026-05-04 19:47 | 50.78406 | 14.17877 | 35972 ft | 454 kts | 336° |
| 2026-05-04 19:48 | 50.84335 | 14.14384 | 35965 ft | 455 kts | 335° |
| 2026-05-04 19:48 | 50.90269 | 14.10879 | 35966 ft | 456 kts | 335° |
| 2026-05-04 19:49 | 50.96220 | 14.07356 | 35977 ft | 456 kts | 335° |
| 2026-05-04 19:49 | 51.01208 | 14.04599 | 35964 ft | 456 kts | 338° |
| 2026-05-04 19:50 | 51.07254 | 14.01522 | 35963 ft | 456 kts | 338° |
| 2026-05-04 19:50 | 51.13308 | 13.98435 | 35965 ft | 456 kts | 338° |
| 2026-05-04 19:51 | 51.19343 | 13.95296 | 35967 ft | 456 kts | 338° |
| 2026-05-04 19:51 | 51.25367 | 13.92127 | 35965 ft | 455 kts | 338° |
| 2026-05-04 19:52 | 51.31380 | 13.88952 | 35965 ft | 455 kts | 338° |
| 2026-05-04 19:52 | 51.37384 | 13.85774 | 35956 ft | 455 kts | 338° |
| 2026-05-04 19:53 | 51.43357 | 13.82604 | 35954 ft | 455 kts | 338° |
| 2026-05-04 19:53 | 51.49365 | 13.79409 | 35958 ft | 455 kts | 337° |
| 2026-05-04 19:54 | 51.55373 | 13.76206 | 35953 ft | 454 kts | 337° |
| 2026-05-04 19:54 | 51.59715 | 13.73885 | 35955 ft | 453 kts | 337° |
| 2026-05-04 19:55 | 51.65709 | 13.70671 | 35956 ft | 453 kts | 337° |
| 2026-05-04 19:55 | 51.71700 | 13.67451 | 35953 ft | 454 kts | 337° |
| 2026-05-04 19:56 | 51.75628 | 13.65334 | 35951 ft | 455 kts | 337° |
| 2026-05-04 19:56 | 51.81606 | 13.62106 | 35943 ft | 456 kts | 337° |
| 2026-05-04 19:57 | 51.87622 | 13.58869 | 35945 ft | 456 kts | 338° |
| 2026-05-04 19:57 | 51.93675 | 13.55783 | 35942 ft | 456 kts | 339° |
| 2026-05-04 19:58 | 51.99750 | 13.52749 | 35953 ft | 456 kts | 338° |